Time;durP1;ratioP1;P1;durP2;ratioP2;P2;SDS_P1;SDS_P2;PMS_P1;PMS_P2;Temp;Humidity;BMP_temperature;BMP_pressure;BME280_temperature;BME280_humidity;BME280_pressure;Samples;Min_cycle;Max_cycle;Signal;HPM_P1;HPM_P2
2023/12/16 00:01:45;;;;;;;;;;;;;;;-144.99;100.00;52706.97;5093602;28;19927;-69
2023/12/16 00:04:11;;;;;;;;;;;;;;;-144.99;100.00;52668.22;5098352;28;19928;-70
2023/12/16 00:06:38;;;;;;;;;;;;;;;-144.99;100.00;52664.16;5102444;28;20348;-69
2023/12/16 00:09:04;;;;;;;;;;;;;;;-144.99;100.00;52680.47;5087659;28;19952;-69
2023/12/16 00:11:31;;;;;;;;;;;;;;;-144.99;100.00;52696.78;5096683;28;19928;-69
2023/12/16 00:13:57;;;;;;;;;;;;;;;-144.99;100.00;52688.63;5095462;28;20022;-72
2023/12/16 00:16:24;;;;;;;;;;;;;;;-144.99;100.00;52704.94;5104284;28;19968;-67
2023/12/16 00:18:52;;;;;;;;;;;;;;;-144.99;100.00;52684.53;4748256;27;10000368;-67
2023/12/16 00:21:18;;;;;;;;;;;;;;;-144.99;100.00;52680.47;5098992;28;19932;-67
2023/12/16 00:23:45;;;;;;;;;;;;;;;-144.99;100.00;52674.34;5091948;28;19928;-67
2023/12/16 00:26:11;;;;;;;;;;;;;;;-144.99;100.00;52647.84;5101757;28;20008;-67
2023/12/16 00:28:38;;;;;;;;;;;;;;;-144.99;100.00;52680.47;5089799;27;19924;-67
2023/12/16 00:31:04;;;;;;;;;;;;;;;-144.99;100.00;52660.09;5088526;28;20455;-67
2023/12/16 00:33:31;;;;;;;;;;;;;;;-144.99;100.00;52682.50;5087853;28;19928;-67
2023/12/16 00:35:58;;;;;;;;;;;;;;;-144.99;100.00;52656.00;5099366;28;20010;-64
2023/12/16 00:38:25;;;;;;;;;;;;;;;-144.99;100.00;52664.16;5099871;28;20052;-64
2023/12/16 00:40:52;;;;;;;;;;;;;;;-144.99;100.00;52684.53;5108628;28;19950;-63
2023/12/16 00:43:18;;;;;;;;;;;;;;;-144.99;100.00;52700.84;5126010;28;19949;-62
2023/12/16 00:45:45;;;;;;;;;;;;;;;-144.99;100.00;52651.94;5115062;28;19916;-62
2023/12/16 00:48:11;;;;;;;;;;;;;;;-144.99;100.00;52684.53;5119692;28;19924;-62
2023/12/16 00:50:38;;;;;;;;;;;;;;;-144.99;100.00;52692.69;5114139;28;19923;-63
2023/12/16 00:53:06;;;;;;;;;;;;;;;-144.99;100.00;52664.16;5123657;28;20019;-63
2023/12/16 00:55:33;;;;;;;;;;;;;;;-144.99;100.00;52680.47;5117462;28;19912;-63
2023/12/16 00:57:59;;;;;;;;;;;;;;;-144.99;100.00;52651.94;5105757;28;19946;-65
2023/12/16 01:00:26;;;;;;;;;;;;;;;-144.99;100.00;52664.16;5093064;28;20450;-65
2023/12/16 01:02:53;;;;;;;;;;;;;;;-144.99;100.00;52672.31;5093358;28;19955;-65
2023/12/16 01:05:19;;;;;;;;;;;;;;;-144.99;100.00;52674.34;5098431;28;19944;-62
2023/12/16 01:07:46;;;;;;;;;;;;;;;-144.99;100.00;52684.53;5090377;28;20608;-62
2023/12/16 01:10:14;;;;;;;;;;;;;;;-144.99;100.00;52692.69;5102426;28;20038;-61
2023/12/16 01:12:41;;;;;;;;;;;;;;;-144.99;100.00;52627.47;5090401;28;19924;-62
2023/12/16 01:15:08;;;;;;;;;;;;;;;-144.99;100.00;52656.00;5099147;28;19963;-62
2023/12/16 01:17:34;;;;;;;;;;;;;;;-144.99;100.00;52668.22;5108090;28;20321;-71
2023/12/16 01:20:01;;;;;;;;;;;;;;;-144.99;100.00;52688.63;5094258;28;19928;-73
2023/12/16 01:22:27;;;;;;;;;;;;;;;-144.99;100.00;52664.16;5104382;28;19977;-73
2023/12/16 01:24:54;;;;;;;;;;;;;;;-144.99;100.00;52664.16;5102103;28;19980;-69
2023/12/16 01:27:22;;;;;;;;;;;;;;;-144.99;100.00;52660.09;5099813;27;20322;-72
2023/12/16 01:29:48;;;;;;;;;;;;;;;-144.99;100.00;52651.94;5101191;28;20160;-71
2023/12/16 01:32:15;;;;;;;;;;;;;;;-144.99;100.00;52696.78;5093690;28;19970;-71
2023/12/16 01:34:41;;;;;;;;;;;;;;;-144.99;100.00;52668.22;5094581;28;19932;-71
2023/12/16 01:37:08;;;;;;;;;;;;;;;-144.99;100.00;52700.84;5089656;28;20197;-72
2023/12/16 01:39:34;;;;;;;;;;;;;;;-144.99;100.00;52721.22;5094390;28;20396;-72
2023/12/16 01:42:00;;;;;;;;;;;;;;;-144.99;100.00;52684.53;5100916;28;19979;-72
2023/12/16 01:44:29;;;;;;;;;;;;;;;-144.99;100.00;52698.81;5087433;28;19969;-73
2023/12/16 01:46:56;;;;;;;;;;;;;;;-144.99;100.00;52682.50;5091918;28;20004;-71
2023/12/16 01:49:22;;;;;;;;;;;;;;;-144.99;100.00;52676.38;5100606;28;20333;-71
2023/12/16 01:51:49;;;;;;;;;;;;;;;-144.99;100.00;52711.03;5090862;28;20014;-74
2023/12/16 01:54:16;;;;;;;;;;;;;;;-144.99;100.00;52668.22;5094622;28;19967;-72
2023/12/16 01:56:43;;;;;;;;;;;;;;;-144.99;100.00;52668.22;5114013;28;19949;-76
2023/12/16 01:59:10;;;;;;;;;;;;;;;-144.99;100.00;52680.47;5120538;28;19924;-72
2023/12/16 02:01:38;;;;;;;;;;;;;;;-144.99;100.00;52653.97;5101742;28;20144;-74
2023/12/16 02:04:05;;;;;;;;;;;;;;;-144.99;100.00;52688.63;5110288;22;19946;-68
2023/12/16 02:06:32;;;;;;;;;;;;;;;-144.99;100.00;52668.22;5079915;28;19955;-66
2023/12/16 02:08:58;;;;;;;;;;;;;;;-144.99;100.00;52680.47;5088714;28;20420;-65
2023/12/16 02:11:25;;;;;;;;;;;;;;;-144.99;100.00;52672.31;5086826;28;20386;-66
2023/12/16 02:13:51;;;;;;;;;;;;;;;-144.99;100.00;52676.38;5087716;28;19924;-66
2023/12/16 02:16:18;;;;;;;;;;;;;;;-144.99;100.00;52658.03;5075250;28;20030;-66
2023/12/16 02:18:46;;;;;;;;;;;;;;;-144.99;100.00;52658.03;5088025;28;19971;-66
2023/12/16 02:21:12;;;;;;;;;;;;;;;-144.99;100.00;52658.03;5086612;28;19924;-64
2023/12/16 02:23:41;;;;;;;;;;;;;;;-144.99;100.00;52676.38;5077219;28;20319;-64
2023/12/16 02:26:08;;;;;;;;;;;;;;;-144.99;100.00;52656.00;5075262;28;20185;-64
2023/12/16 02:28:34;;;;;;;;;;;;;;;-144.99;100.00;52664.16;5085811;28;20014;-64
2023/12/16 02:31:01;;;;;;;;;;;;;;;-144.99;100.00;52680.47;5088784;28;19924;-64
2023/12/16 02:33:27;;;;;;;;;;;;;;;-144.99;100.00;52676.38;5085910;28;20527;-63
2023/12/16 02:35:54;;;;;;;;;;;;;;;-144.99;100.00;52651.94;5087799;28;19928;-64
2023/12/16 02:38:20;;;;;;;;;;;;;;;-144.99;100.00;52674.34;5088739;28;20056;-63
2023/12/16 02:40:48;;;;;;;;;;;;;;;-144.99;100.00;52649.88;5088949;28;20390;-64
2023/12/16 02:43:15;;;;;;;;;;;;;;;-144.99;100.00;52660.09;5088804;28;19932;-68
2023/12/16 02:45:41;;;;;;;;;;;;;;;-144.99;100.00;52668.22;5089105;28;20463;-68
2023/12/16 02:48:08;;;;;;;;;;;;;;;-144.99;100.00;52680.47;5093186;28;19976;-68
2023/12/16 02:50:34;;;;;;;;;;;;;;;-144.99;100.00;52696.78;5090570;28;20011;-67
2023/12/16 02:53:01;;;;;;;;;;;;;;;-144.99;100.00;52664.16;5076731;28;20011;-67
2023/12/16 02:55:27;;;;;;;;;;;;;;;-144.99;100.00;52649.88;5093487;28;20020;-68
2023/12/16 02:57:55;;;;;;;;;;;;;;;-144.99;100.00;52639.69;5090956;28;20282;-68
2023/12/16 03:00:22;;;;;;;;;;;;;;;-144.99;100.00;52668.22;5077973;28;20317;-67
2023/12/16 03:02:48;;;;;;;;;;;;;;;-144.99;100.00;52653.97;5091664;28;19951;-67
2023/12/16 03:05:15;;;;;;;;;;;;;;;-144.99;100.00;52649.88;5087618;28;19998;-68
2023/12/16 03:07:41;;;;;;;;;;;;;;;-144.99;100.00;52709.00;5090970;28;20024;-67
2023/12/16 03:10:08;;;;;;;;;;;;;;;-144.99;100.00;52676.38;5081430;28;19933;-66
2023/12/16 03:12:34;;;;;;;;;;;;;;;-144.99;100.00;52668.22;5087188;28;19924;-66
2023/12/16 03:15:03;;;;;;;;;;;;;;;-144.99;100.00;52690.66;5091339;28;19932;-66
2023/12/16 03:17:30;;;;;;;;;;;;;;;-144.99;100.00;52672.31;5090212;28;19966;-67
2023/12/16 03:19:56;;;;;;;;;;;;;;;-144.99;100.00;52651.94;5091882;28;19935;-68
2023/12/16 03:22:23;;;;;;;;;;;;;;;-144.99;100.00;52660.09;5091569;28;20197;-68
2023/12/16 03:24:49;;;;;;;;;;;;;;;-144.99;100.00;52692.69;5091938;28;19974;-67
2023/12/16 03:27:15;;;;;;;;;;;;;;;-144.99;100.00;52680.47;5087635;28;19974;-68
2023/12/16 03:29:42;;;;;;;;;;;;;;;-144.99;100.00;52668.22;5091880;28;19924;-67
2023/12/16 03:32:10;;;;;;;;;;;;;;;-144.99;100.00;52688.63;5091976;28;19975;-75
2023/12/16 03:34:36;;;;;;;;;;;;;;;-144.99;100.00;52676.38;5093169;28;19924;-78
2023/12/16 03:37:03;;;;;;;;;;;;;;;-144.99;100.00;52698.81;5090436;28;19967;-65
2023/12/16 03:39:29;;;;;;;;;;;;;;;-144.99;100.00;52664.16;5090114;28;20294;-66
2023/12/16 03:41:56;;;;;;;;;;;;;;;-144.99;100.00;52658.03;5091020;28;20013;-66
2023/12/16 03:44:22;;;;;;;;;;;;;;;-144.99;100.00;52680.47;5084831;28;20407;-67
2023/12/16 03:46:49;;;;;;;;;;;;;;;-144.99;100.00;52656.00;5091763;28;20027;-66
2023/12/16 03:49:17;;;;;;;;;;;;;;;-144.99;100.00;52658.03;5089668;28;20046;-67
2023/12/16 03:51:43;;;;;;;;;;;;;;;-144.99;100.00;52672.31;5090793;28;19954;-64
2023/12/16 03:54:10;;;;;;;;;;;;;;;-144.99;100.00;52680.47;5090334;28;19963;-64
2023/12/16 03:56:37;;;;;;;;;;;;;;;-144.99;100.00;52653.97;5091405;28;19924;-64
2023/12/16 03:59:04;;;;;;;;;;;;;;;-144.99;100.00;52656.00;5089486;28;20238;-64
2023/12/16 04:01:30;;;;;;;;;;;;;;;-144.99;100.00;52662.13;5082393;28;19924;-65
2023/12/16 04:03:57;;;;;;;;;;;;;;;-144.99;100.00;52680.47;5091008;28;19986;-64
2023/12/16 04:06:25;;;;;;;;;;;;;;;-144.99;100.00;52656.00;5090802;28;20008;-65
2023/12/16 04:08:52;;;;;;;;;;;;;;;-144.99;100.00;52656.00;5089175;28;19948;-64
2023/12/16 04:11:18;;;;;;;;;;;;;;;-144.99;100.00;52725.31;5086840;28;19959;-67
2023/12/16 04:13:45;;;;;;;;;;;;;;;-144.99;100.00;52668.22;5090370;28;19932;-64
2023/12/16 04:16:11;;;;;;;;;;;;;;;-144.99;100.00;52660.09;5078209;28;19971;-64
2023/12/16 04:18:38;;;;;;;;;;;;;;;-144.99;100.00;52696.78;5088618;28;19956;-64
2023/12/16 04:21:05;;;;;;;;;;;;;;;-144.99;100.00;52700.84;5087776;28;20018;-64
2023/12/16 04:23:32;;;;;;;;;;;;;;;-144.99;100.00;52672.31;5090284;28;19964;-64
2023/12/16 04:25:59;;;;;;;;;;;;;;;-144.99;100.00;52717.16;5088282;28;20389;-66
2023/12/16 04:28:26;;;;;;;;;;;;;;;-144.99;100.00;52702.88;5086503;28;19924;-66
2023/12/16 04:30:52;;;;;;;;;;;;;;;-144.99;100.00;52651.94;5088147;28;19932;-66
2023/12/16 04:33:19;;;;;;;;;;;;;;;-144.99;100.00;52682.50;5085736;28;19924;-66
2023/12/16 04:35:45;;;;;;;;;;;;;;;-144.99;100.00;52706.97;5090293;28;20184;-70
2023/12/16 04:38:12;;;;;;;;;;;;;;;-144.99;100.00;52682.50;5089928;28;20159;-70
2023/12/16 04:40:40;;;;;;;;;;;;;;;-144.99;100.00;52717.16;5089711;28;20381;-71
2023/12/16 04:43:06;;;;;;;;;;;;;;;-144.99;100.00;52700.84;5087566;28;20338;-70
2023/12/16 04:45:33;;;;;;;;;;;;;;;-144.99;100.00;52676.38;5090300;28;20026;-71
2023/12/16 04:48:01;;;;;;;;;;;;;;;-144.99;100.00;52684.53;5090267;28;19963;-66
2023/12/16 04:50:27;;;;;;;;;;;;;;;-144.99;100.00;52696.78;5090075;28;19928;-66
2023/12/16 04:52:53;;;;;;;;;;;;;;;-144.99;100.00;52658.03;5084340;28;19959;-65
2023/12/16 04:55:20;;;;;;;;;;;;;;;-144.99;100.00;52672.31;5090026;28;19968;-65
2023/12/16 04:57:48;;;;;;;;;;;;;;;-144.99;100.00;52692.69;5089528;28;19955;-65
2023/12/16 05:00:15;;;;;;;;;;;;;;;-144.99;100.00;52704.94;5077657;28;20032;-65
2023/12/16 05:02:41;;;;;;;;;;;;;;;-144.99;100.00;52723.28;5092359;28;19967;-69
2023/12/16 05:05:08;;;;;;;;;;;;;;;-144.99;100.00;52676.38;5088404;28;20275;-70
2023/12/16 05:07:34;;;;;;;;;;;;;;;-144.99;100.00;52668.22;5089344;28;19927;-69
2023/12/16 05:10:01;;;;;;;;;;;;;;;-144.99;100.00;52637.66;5090026;28;19924;-66
2023/12/16 05:12:31;;;;;;;;;;;;;;;-144.99;100.00;52649.88;5088527;28;20554;-70
2023/12/16 05:14:59;;;;;;;;;;;;;;;-144.99;100.00;52676.38;5086411;28;20022;-70
2023/12/16 05:17:25;;;;;;;;;;;;;;;-144.99;100.00;52676.38;5085810;28;19940;-70
2023/12/16 05:19:52;;;;;;;;;;;;;;;-144.99;100.00;52672.31;5084909;28;20344;-70
2023/12/16 05:22:18;;;;;;;;;;;;;;;-144.99;100.00;52676.38;5087076;28;19932;-70
2023/12/16 05:24:47;;;;;;;;;;;;;;;-144.99;100.00;52668.22;5088618;28;19966;-70
2023/12/16 05:27:14;;;;;;;;;;;;;;;-144.99;100.00;52651.94;5081224;28;20314;-70
2023/12/16 05:29:41;;;;;;;;;;;;;;;-144.99;100.00;52704.94;5087120;28;19932;-70
2023/12/16 05:32:08;;;;;;;;;;;;;;;-144.99;100.00;52684.53;5087951;28;19971;-69
2023/12/16 05:34:35;;;;;;;;;;;;;;;-144.99;100.00;52704.94;5087648;28;20299;-70
2023/12/16 05:37:01;;;;;;;;;;;;;;;-144.99;100.00;52662.13;5088912;28;19924;-67
2023/12/16 05:39:29;;;;;;;;;;;;;;;-144.99;100.00;52662.13;5089052;28;20357;-68
2023/12/16 05:41:56;;;;;;;;;;;;;;;-144.99;100.00;52702.88;5075569;28;19928;-69
2023/12/16 05:44:22;;;;;;;;;;;;;;;-144.99;100.00;52643.78;5086941;28;19993;-70
2023/12/16 05:46:49;;;;;;;;;;;;;;;-144.99;100.00;52690.66;5076235;28;19964;-69
2023/12/16 05:49:17;;;;;;;;;;;;;;;-144.99;100.00;52709.00;5089241;28;19968;-71
2023/12/16 05:51:44;;;;;;;;;;;;;;;-144.99;100.00;52660.09;5085177;28;19951;-61
2023/12/16 05:54:10;;;;;;;;;;;;;;;-144.99;100.00;52692.69;5083252;28;19967;-62
2023/12/16 05:56:37;;;;;;;;;;;;;;;-144.99;100.00;52653.97;5087909;28;19974;-61
2023/12/16 05:59:03;;;;;;;;;;;;;;;-144.99;100.00;52639.69;5088355;28;20460;-63
2023/12/16 06:01:30;;;;;;;;;;;;;;;-144.99;100.00;52651.94;5080465;28;19971;-63
2023/12/16 06:03:56;;;;;;;;;;;;;;;-144.99;100.00;52660.09;5088373;28;19931;-63
2023/12/16 06:06:24;;;;;;;;;;;;;;;-144.99;100.00;52688.63;5082205;28;19955;-63
2023/12/16 06:08:53;;;;;;;;;;;;;;;-144.99;100.00;52684.53;5084243;28;20015;-63
2023/12/16 06:11:21;;;;;;;;;;;;;;;-144.99;100.00;52660.09;5086973;28;20017;-63
2023/12/16 06:13:47;;;;;;;;;;;;;;;-144.99;100.00;52696.78;5088467;28;19935;-63
2023/12/16 06:16:14;;;;;;;;;;;;;;;-144.99;100.00;52676.38;5084872;28;19963;-63
2023/12/16 06:18:41;;;;;;;;;;;;;;;-144.99;100.00;52688.63;5079724;28;20382;-62
2023/12/16 06:21:09;;;;;;;;;;;;;;;-144.99;100.00;52660.09;5088375;28;20389;-69
2023/12/16 06:23:36;;;;;;;;;;;;;;;-144.99;100.00;52660.09;5081157;28;20061;-68
2023/12/16 06:26:03;;;;;;;;;;;;;;;-144.99;100.00;52688.63;5086758;28;19975;-67
2023/12/16 06:28:29;;;;;;;;;;;;;;;-144.99;100.00;52719.19;5078355;28;19948;-67
2023/12/16 06:30:56;;;;;;;;;;;;;;;-144.99;100.00;52680.47;5079220;28;20012;-67
2023/12/16 06:33:23;;;;;;;;;;;;;;;-144.99;100.00;52676.38;5088464;28;20006;-67
2023/12/16 06:35:49;;;;;;;;;;;;;;;-144.99;100.00;52684.53;5088416;28;19932;-62
2023/12/16 06:38:16;;;;;;;;;;;;;;;-144.99;100.00;52696.78;5080065;28;20503;-62
2023/12/16 06:40:44;;;;;;;;;;;;;;;-144.99;100.00;52643.78;5086887;28;20039;-66
2023/12/16 06:43:10;;;;;;;;;;;;;;;-144.99;100.00;52680.47;5082103;28;19963;-66
2023/12/16 06:45:38;;;;;;;;;;;;;;;-144.99;100.00;52672.31;5086878;28;19956;-65
2023/12/16 06:48:04;;;;;;;;;;;;;;;-144.99;100.00;52709.00;5082095;28;20464;-65
2023/12/16 06:50:31;;;;;;;;;;;;;;;-144.99;100.00;52676.38;5078250;28;19959;-65
2023/12/16 06:52:57;;;;;;;;;;;;;;;-144.99;100.00;52680.47;5079552;28;20382;-64
2023/12/16 06:55:24;;;;;;;;;;;;;;;-144.99;100.00;52700.84;5088691;28;19971;-65
2023/12/16 06:57:52;;;;;;;;;;;;;;;-144.99;100.00;52696.78;5087649;28;20015;-65
2023/12/16 07:00:18;;;;;;;;;;;;;;;-144.99;100.00;52696.78;5077165;28;20017;-65
2023/12/16 07:02:45;;;;;;;;;;;;;;;-144.99;100.00;52643.78;5073449;28;19928;-65
2023/12/16 07:05:12;;;;;;;;;;;;;;;-144.99;100.00;52684.53;5088205;28;19928;-65
2023/12/16 07:07:38;;;;;;;;;;;;;;;-144.99;100.00;52676.38;5088193;28;19967;-64
2023/12/16 07:10:06;;;;;;;;;;;;;;;-144.99;100.00;52682.50;5086577;28;19959;-65
2023/12/16 07:12:32;;;;;;;;;;;;;;;-144.99;100.00;52660.09;5077193;28;20309;-64
2023/12/16 07:15:00;;;;;;;;;;;;;;;-144.99;100.00;52643.78;5084132;28;19924;-68
2023/12/16 07:17:27;;;;;;;;;;;;;;;-144.99;100.00;52672.31;5084421;28;20019;-69
2023/12/16 07:19:53;;;;;;;;;;;;;;;-144.99;100.00;52641.72;5074590;28;19932;-64
2023/12/16 07:22:20;;;;;;;;;;;;;;;-144.99;100.00;52709.00;5086106;28;20027;-66
2023/12/16 07:24:46;;;;;;;;;;;;;;;-144.99;100.00;52678.44;5086605;28;19928;-61
2023/12/16 07:27:13;;;;;;;;;;;;;;;-144.99;100.00;52719.19;5081162;28;19971;-61
2023/12/16 07:29:39;;;;;;;;;;;;;;;-144.99;100.00;52688.63;5090470;28;19967;-61
2023/12/16 07:32:08;;;;;;;;;;;;;;;-144.99;100.00;52725.31;5090207;28;19928;-61
2023/12/16 07:34:34;;;;;;;;;;;;;;;-144.99;100.00;52668.22;5081784;28;20213;-61
2023/12/16 07:37:01;;;;;;;;;;;;;;;-144.99;100.00;52717.16;5091129;28;19924;-61
2023/12/16 07:39:27;;;;;;;;;;;;;;;-144.99;100.00;52694.72;5090895;28;19971;-69
2023/12/16 07:41:54;;;;;;;;;;;;;;;-144.99;100.00;52676.38;5090448;28;19977;-69
2023/12/16 07:44:20;;;;;;;;;;;;;;;-144.99;100.00;52733.47;5089540;28;19928;-69
2023/12/16 07:46:47;;;;;;;;;;;;;;;-144.99;100.00;52717.16;5082488;28;19928;-67
2023/12/16 07:49:16;;;;;;;;;;;;;;;-144.99;100.00;52704.94;5091021;28;19928;-67
2023/12/16 07:51:43;;;;;;;;;;;;;;;-144.99;100.00;52692.69;5084986;28;19936;-67
2023/12/16 07:54:11;;;;;;;;;;;;;;;-144.99;100.00;52668.22;5085179;28;19928;-67
2023/12/16 07:56:37;;;;;;;;;;;;;;;-144.99;100.00;52696.78;5089852;28;20287;-66
2023/12/16 07:59:04;;;;;;;;;;;;;;;-144.99;100.00;52658.03;5090785;28;20011;-67
2023/12/16 08:01:30;;;;;;;;;;;;;;;-144.99;100.00;52676.38;5082322;28;19952;-66
2023/12/16 08:03:57;;;;;;;;;;;;;;;-144.99;100.00;52668.22;5090523;28;20515;-68
2023/12/16 08:06:24;;;;;;;;;;;;;;;-144.99;100.00;52684.53;5085203;28;19924;-68
2023/12/16 08:08:51;;;;;;;;;;;;;;;-144.99;100.00;52733.47;5091137;28;19962;-68
2023/12/16 08:11:18;;;;;;;;;;;;;;;-144.99;100.00;52717.16;5090923;28;20023;-63
2023/12/16 08:13:44;;;;;;;;;;;;;;;-144.99;100.00;52717.16;5090431;28;19967;-71
2023/12/16 08:16:11;;;;;;;;;;;;;;;-144.99;100.00;52643.78;5087833;28;19975;-69
2023/12/16 08:18:37;;;;;;;;;;;;;;;-144.99;100.00;52649.88;5088530;28;19981;-69
2023/12/16 08:21:04;;;;;;;;;;;;;;;-144.99;100.00;52690.66;5090889;28;19971;-69
2023/12/16 08:23:32;;;;;;;;;;;;;;;-144.99;100.00;52676.38;5083254;28;20443;-69
2023/12/16 08:25:59;;;;;;;;;;;;;;;-144.99;100.00;52680.47;5088208;28;19924;-70
2023/12/16 08:28:25;;;;;;;;;;;;;;;-144.99;100.00;52694.72;5089862;28;20049;-70
2023/12/16 08:30:52;;;;;;;;;;;;;;;-144.99;100.00;52700.84;5090198;28;19971;-69
2023/12/16 08:33:18;;;;;;;;;;;;;;;-144.99;100.00;52700.84;5085772;28;20032;-69
2023/12/16 08:35:45;;;;;;;;;;;;;;;-144.99;100.00;52651.94;5090087;28;20393;-69
2023/12/16 08:38:11;;;;;;;;;;;;;;;-144.99;100.00;52680.47;5083101;28;19925;-69
2023/12/16 08:40:40;;;;;;;;;;;;;;;-144.99;100.00;52704.94;5081507;28;20019;-70
2023/12/16 08:43:06;;;;;;;;;;;;;;;-144.99;100.00;52700.84;5089823;28;20690;-70
2023/12/16 08:45:33;;;;;;;;;;;;;;;-144.99;100.00;52700.84;5090196;28;20093;-70
2023/12/16 08:47:59;;;;;;;;;;;;;;;-144.99;100.00;52674.34;5082726;28;20275;-70
2023/12/16 08:50:27;;;;;;;;;;;;;;;-144.99;100.00;52676.38;5084491;28;20151;-70
2023/12/16 08:52:53;;;;;;;;;;;;;;;-144.99;100.00;52647.84;5077237;28;19924;-69
2023/12/16 08:55:20;;;;;;;;;;;;;;;-144.99;100.00;52692.69;5090455;28;20374;-69
2023/12/16 08:57:47;;;;;;;;;;;;;;;-144.99;100.00;52749.78;5091525;28;19952;-70
2023/12/16 09:00:14;;;;;;;;;;;;;;;-144.99;100.00;52711.03;5093575;28;19949;-69
2023/12/16 09:02:41;;;;;;;;;;;;;;;-144.99;100.00;52682.50;5092529;28;20381;-69
2023/12/16 09:05:08;;;;;;;;;;;;;;;-144.99;100.00;52700.84;5089980;28;19932;-70
2023/12/16 09:07:34;;;;;;;;;;;;;;;-144.99;100.00;52668.22;5090402;28;19974;-71
2023/12/16 09:10:01;;;;;;;;;;;;;;;-144.99;100.00;52680.47;5088710;28;19924;-70
2023/12/16 09:12:27;;;;;;;;;;;;;;;-144.99;100.00;52676.38;5089873;28;20346;-70
2023/12/16 09:14:55;;;;;;;;;;;;;;;-144.99;100.00;52696.78;5089752;28;19978;-70
2023/12/16 09:17:22;;;;;;;;;;;;;;;-144.99;100.00;52676.38;5085506;28;19968;-70
2023/12/16 09:19:48;;;;;;;;;;;;;;;-144.99;100.00;52700.84;5088680;28;19970;-70
2023/12/16 09:22:16;;;;;;;;;;;;;;;-144.99;100.00;52711.03;5088622;28;20439;-70
2023/12/16 09:24:42;;;;;;;;;;;;;;;-144.99;100.00;52725.31;5089675;28;19924;-69
2023/12/16 09:27:09;;;;;;;;;;;;;;;-144.99;100.00;52670.28;5082907;28;20435;-69
2023/12/16 09:29:35;;;;;;;;;;;;;;;-144.99;100.00;52678.44;5089152;28;19940;-68
2023/12/16 09:32:05;;;;;;;;;;;;;;;-144.99;100.00;52656.00;5083944;28;19924;-63
2023/12/16 09:34:31;;;;;;;;;;;;;;;-144.99;100.00;52696.78;5089284;28;19930;-63
2023/12/16 09:36:57;;;;;;;;;;;;;;;-144.99;100.00;52680.47;5088959;28;20306;-63
2023/12/16 09:39:24;;;;;;;;;;;;;;;-144.99;100.00;52668.22;5089261;28;19977;-63
2023/12/16 09:41:51;;;;;;;;;;;;;;;-144.99;100.00;52682.50;5085202;28;20297;-63
2023/12/16 09:44:20;;;;;;;;;;;;;;;-144.99;100.00;52672.31;5082077;28;19924;-63
2023/12/16 09:46:47;;;;;;;;;;;;;;;-144.99;100.00;52678.44;5087557;28;19928;-63
2023/12/16 09:49:16;;;;;;;;;;;;;;;-144.99;100.00;52639.69;5084012;28;19924;-67
2023/12/16 09:51:42;;;;;;;;;;;;;;;-144.99;100.00;52660.09;5087056;28;20019;-67
2023/12/16 09:54:09;;;;;;;;;;;;;;;-144.99;100.00;52713.09;5078909;28;19925;-64
2023/12/16 09:56:36;;;;;;;;;;;;;;;-144.99;100.00;52688.63;5086156;28;19975;-67
2023/12/16 09:59:03;;;;;;;;;;;;;;;-144.99;100.00;52684.53;5088109;28;20118;-67
2023/12/16 10:01:30;;;;;;;;;;;;;;;-144.99;100.00;52664.16;5088615;28;20011;-67
2023/12/16 10:03:57;;;;;;;;;;;;;;;-144.99;100.00;52717.16;5081444;28;20332;-68
2023/12/16 10:06:25;;;;;;;;;;;;;;;-144.99;100.00;52668.22;5085196;28;19931;-68
2023/12/16 10:08:51;;;;;;;;;;;;;;;-144.99;100.00;52680.47;5087547;28;19963;-69
2023/12/16 10:11:18;;;;;;;;;;;;;;;-144.99;100.00;52692.69;5088837;28;19928;-70
2023/12/16 10:13:57;;;;;;;;;;;;;;;-144.99;100.00;52713.09;5087264;28;19979;-69
2023/12/16 10:16:24;;;;;;;;;;;;;;;-144.99;100.00;52678.44;5083653;28;19924;-69
2023/12/16 10:18:51;;;;;;;;;;;;;;;-144.99;100.00;52668.22;5088204;28;19947;-69
2023/12/16 10:21:20;;;;;;;;;;;;;;;-144.99;100.00;52664.16;5088773;28;19928;-69
2023/12/16 10:23:48;;;;;;;;;;;;;;;-144.99;100.00;52672.31;5087709;28;19967;-68
2023/12/16 10:26:14;;;;;;;;;;;;;;;-144.99;100.00;52645.81;5089001;28;20039;-68
2023/12/16 10:28:45;;;;;;;;;;;;;;;-144.99;100.00;52668.22;5088281;28;19979;-68
2023/12/16 10:31:11;;;;;;;;;;;;;;;-144.99;100.00;52653.97;5082963;28;19924;-70
2023/12/16 10:33:38;;;;;;;;;;;;;;;-144.99;100.00;52643.78;5088310;28;19939;-69
2023/12/16 10:36:04;;;;;;;;;;;;;;;-144.99;100.00;52676.38;5086401;28;20382;-68
2023/12/16 10:38:31;;;;;;;;;;;;;;;-144.99;100.00;52660.09;5087887;28;20394;-68
2023/12/16 10:40:59;;;;;;;;;;;;;;;-144.99;100.00;52709.00;5088272;28;20039;-71
2023/12/16 10:43:25;;;;;;;;;;;;;;;-144.99;100.00;52627.47;5088019;28;20026;-69
2023/12/16 10:45:52;;;;;;;;;;;;;;;-144.99;100.00;52656.00;5088106;28;19924;-69
2023/12/16 10:48:21;;;;;;;;;;;;;;;-144.99;100.00;52656.00;5088340;28;19963;-70
2023/12/16 10:50:48;;;;;;;;;;;;;;;-144.99;100.00;52664.16;5088677;28;19924;-71
2023/12/16 10:53:18;;;;;;;;;;;;;;;-144.99;100.00;52660.09;5084432;28;20423;-69
2023/12/16 10:55:45;;;;;;;;;;;;;;;-144.99;100.00;52651.94;5087230;28;20449;-69
2023/12/16 10:58:21;;;;;;;;;;;;;;;-144.99;100.00;52674.34;5088009;28;20461;-69
2023/12/16 11:00:49;;;;;;;;;;;;;;;-144.99;100.00;52692.69;5088484;28;20020;-71
2023/12/16 11:03:19;;;;;;;;;;;;;;;-144.99;100.00;52664.16;5088955;28;20051;-71
2023/12/16 11:05:49;;;;;;;;;;;;;;;-144.99;100.00;52615.25;5092294;28;19952;-70
2023/12/16 11:08:16;;;;;;;;;;;;;;;-144.99;100.00;52704.94;5092179;28;20300;-69
2023/12/16 11:10:43;;;;;;;;;;;;;;;-144.99;100.00;52643.78;5092291;28;19994;-70
2023/12/16 11:13:09;;;;;;;;;;;;;;;-144.99;100.00;52678.44;5092160;28;19928;-68
2023/12/16 11:15:38;;;;;;;;;;;;;;;-144.99;100.00;52696.78;5092196;28;20032;-71
2023/12/16 11:18:08;;;;;;;;;;;;;;;-144.99;100.00;52668.22;5088101;28;20434;-68
2023/12/16 11:20:38;;;;;;;;;;;;;;;-144.99;100.00;52651.94;5092010;28;20017;-69
2023/12/16 11:23:05;;;;;;;;;;;;;;;-144.99;100.00;52643.78;5091232;28;19928;-68
2023/12/16 11:25:33;;;;;;;;;;;;;;;-144.99;100.00;52668.22;5091667;28;20022;-69
2023/12/16 11:28:01;;;;;;;;;;;;;;;-144.99;100.00;52684.53;5088561;28;19924;-70
2023/12/16 11:30:29;;;;;;;;;;;;;;;-144.99;100.00;52676.38;5089440;28;20359;-68
2023/12/16 11:32:58;;;;;;;;;;;;;;;-144.99;100.00;52643.78;5083278;28;19931;-68
2023/12/16 11:35:52;;;;;;;;;;;;;;;-144.99;100.00;52631.53;5086988;28;20335;-69
2023/12/16 11:38:37;;;;;;;;;;;;;;;-144.99;100.00;52664.16;5064388;28;19936;-70
2023/12/16 11:41:04;;;;;;;;;;;;;;;-144.99;100.00;52700.84;5076105;28;20297;-69
2023/12/16 11:43:45;;;;;;;;;;;;;;;-144.99;100.00;52664.16;5083316;28;19974;-73
2023/12/16 11:46:32;;;;;;;;;;;;;;;-144.99;100.00;52627.47;5084858;28;19932;-69
2023/12/16 11:49:01;;;;;;;;;;;;;;;-144.99;100.00;52696.78;5074927;28;19970;-69
2023/12/16 11:51:28;;;;;;;;;;;;;;;-144.99;100.00;52680.47;5082032;28;19929;-69
2023/12/16 11:53:55;;;;;;;;;;;;;;;-144.99;100.00;52658.03;5091050;28;20362;-70
2023/12/16 11:56:21;;;;;;;;;;;;;;;-144.99;100.00;52680.47;5091039;28;19968;-67
2023/12/16 11:58:48;;;;;;;;;;;;;;;-144.99;100.00;52668.22;5086486;28;20369;-69
2023/12/16 12:01:16;;;;;;;;;;;;;;;-144.99;100.00;52643.78;5086753;28;19924;-70
2023/12/16 12:03:43;;;;;;;;;;;;;;;-144.99;100.00;52696.78;5089693;28;19973;-69
2023/12/16 12:06:11;;;;;;;;;;;;;;;-144.99;100.00;52662.13;5085933;28;19967;-68
2023/12/16 12:08:37;;;;;;;;;;;;;;;-144.99;100.00;52668.22;5085800;28;19940;-69
2023/12/16 12:11:06;;;;;;;;;;;;;;;-144.99;100.00;52639.69;5089883;28;20367;-69
2023/12/16 12:13:34;;;;;;;;;;;;;;;-144.99;100.00;52643.78;5090470;28;19924;-68
2023/12/16 12:16:01;;;;;;;;;;;;;;;-144.99;100.00;52664.16;5089970;28;19958;-70
2023/12/16 12:18:28;;;;;;;;;;;;;;;-144.99;100.00;52664.16;5089259;28;19928;-69